createdAt,value
2023-03-25T00:01:26.032Z,39.03
2023-03-25T00:03:56.243Z,41.08
2023-03-25T00:06:27.355Z,40.35
2023-03-25T00:08:59.158Z,40.78
2023-03-25T00:11:29.894Z,39.42
2023-03-25T00:14:00.788Z,39.30
2023-03-25T00:16:29.161Z,40.50
2023-03-25T00:19:01.086Z,38.97
2023-03-25T00:21:33.770Z,39.05
2023-03-25T00:24:10.817Z,38.95
2023-03-25T00:26:42.690Z,41.05
2023-03-25T00:29:13.639Z,40.85
2023-03-25T00:31:42.383Z,39.15
2023-03-25T00:34:14.685Z,38.70
2023-03-25T00:36:43.918Z,39.72
2023-03-25T00:39:14.336Z,40.30
2023-03-25T00:41:44.906Z,40.63
2023-03-25T00:44:14.667Z,40.95
2023-03-25T00:46:42.888Z,42.38
2023-03-25T00:49:12.325Z,43.38
2023-03-25T00:51:52.893Z,42.47
2023-03-25T00:54:23.129Z,43.30
2023-03-25T00:56:52.676Z,43.55
2023-03-25T00:59:22.876Z,44.03
2023-03-25T01:01:53.745Z,41.38
2023-03-25T01:04:24.921Z,44.13
2023-03-25T01:06:53.798Z,42.75
2023-03-25T01:09:22.085Z,45.42
2023-03-25T01:11:50.964Z,45.30
2023-03-25T01:14:24.315Z,45.85
2023-03-25T01:16:52.780Z,45.60
2023-03-25T01:19:21.368Z,45.55
2023-03-25T01:21:52.120Z,48.22
2023-03-25T01:24:20.836Z,47.45
2023-03-25T01:26:49.672Z,46.28
2023-03-25T01:29:21.392Z,48.28
2023-03-25T01:31:51.946Z,48.38
2023-03-25T01:34:23.315Z,48.67
2023-03-25T01:36:55.791Z,49.28
2023-03-25T01:39:27.111Z,48.40
2023-03-25T01:41:58.295Z,47.83
2023-03-25T01:45:06.647Z,48.58
2023-03-25T01:47:37.209Z,49.42
2023-03-25T01:50:08.735Z,48.65
2023-03-25T01:52:37.378Z,48.72
2023-03-25T01:55:11.101Z,47.38
2023-03-25T01:57:43.880Z,49.35
2023-03-25T02:00:14.368Z,46.08
2023-03-25T02:02:46.093Z,48.35
2023-03-25T02:05:21.824Z,48.20
2023-03-25T02:07:52.691Z,47.80
2023-03-25T02:10:22.189Z,47.45
2023-03-25T02:12:51.840Z,46.40
2023-03-25T02:15:21.219Z,47.40
2023-03-25T02:18:03.778Z,46.35
2023-03-25T02:21:12.850Z,45.75
2023-03-25T02:24:05.767Z,46.97
2023-03-25T02:27:14.999Z,45.22
2023-03-25T02:30:22.922Z,47.25
2023-03-25T02:33:21.677Z,47.60
2023-03-25T02:36:18.282Z,47.85
2023-03-25T02:38:51.108Z,46.60
2023-03-25T02:41:25.921Z,48.05
2023-03-25T02:44:00.395Z,47.03
2023-03-25T02:46:33.413Z,48.63
2023-03-25T02:49:06.733Z,48.60
2023-03-25T02:51:38.752Z,46.33
2023-03-25T02:54:16.429Z,47.00
2023-03-25T02:56:47.758Z,47.20
2023-03-25T02:59:19.228Z,49.47
2023-03-25T03:01:52.646Z,46.70
2023-03-25T03:04:20.871Z,46.65
2023-03-25T03:06:49.334Z,47.20
2023-03-25T03:09:36.738Z,49.17
2023-03-25T03:12:26.440Z,48.05
2023-03-25T03:15:07.208Z,47.15
2023-03-25T03:17:44.404Z,47.53
2023-03-25T03:20:25.480Z,46.55
2023-03-25T03:23:02.120Z,46.60
2023-03-25T03:25:37.131Z,48.92
2023-03-25T03:28:11.266Z,45.63
2023-03-25T03:30:46.576Z,43.50
2023-03-25T03:33:22.076Z,44.63
2023-03-25T03:35:57.506Z,44.67
2023-03-25T03:38:31.080Z,45.88
2023-03-25T03:41:05.450Z,47.40
2023-03-25T03:43:39.298Z,49.83
2023-03-25T03:46:11.612Z,45.10
2023-03-25T03:48:43.734Z,45.35
2023-03-25T03:51:16.656Z,46.40
2023-03-25T03:53:51.659Z,48.00
2023-03-25T03:56:23.741Z,46.30
2023-03-25T03:58:58.589Z,44.88
2023-03-25T04:01:34.925Z,46.03
2023-03-25T04:04:06.385Z,51.70
2023-03-25T04:06:42.334Z,48.40
2023-03-25T04:09:18.557Z,47.35
2023-03-25T04:11:54.785Z,46.42
2023-03-25T04:14:24.572Z,49.28
2023-03-25T04:16:55.377Z,47.03
2023-03-25T04:19:23.963Z,48.03
2023-03-25T04:21:53.570Z,48.20
2023-03-25T04:24:21.687Z,48.13
2023-03-25T04:26:53.424Z,48.53
2023-03-25T04:29:21.533Z,46.75
2023-03-25T04:31:50.519Z,50.05
2023-03-25T04:34:20.575Z,51.03
2023-03-25T04:36:50.493Z,44.58
2023-03-25T04:39:22.604Z,46.83
2023-03-25T04:41:53.651Z,49.28
2023-03-25T04:44:21.861Z,48.63
2023-03-25T04:46:50.605Z,50.17
2023-03-25T04:49:21.457Z,48.83
2023-03-25T04:51:51.591Z,46.78
2023-03-25T04:54:21.027Z,45.70
2023-03-25T04:56:51.295Z,48.40
2023-03-25T04:59:20.089Z,53.35
2023-03-25T05:01:49.044Z,47.58
2023-03-25T05:04:19.099Z,46.65
2023-03-25T05:06:49.594Z,45.75
2023-03-25T05:09:20.522Z,46.53
2023-03-25T05:11:48.839Z,51.50
2023-03-25T05:14:20.398Z,51.97
2023-03-25T05:16:49.608Z,48.10
2023-03-25T05:19:21.072Z,49.40
2023-03-25T05:21:49.733Z,47.88
2023-03-25T05:24:17.785Z,48.42
2023-03-25T05:26:49.258Z,46.55
2023-03-25T05:29:19.329Z,45.97
2023-03-25T05:31:48.659Z,45.40
2023-03-25T05:34:17.332Z,45.05
2023-03-25T05:36:46.178Z,44.60
2023-03-25T05:39:14.552Z,46.10
2023-03-25T05:41:45.513Z,46.40
2023-03-25T05:44:15.075Z,45.53
2023-03-25T05:46:44.578Z,49.67
2023-03-25T05:49:14.447Z,41.35
2023-03-25T05:51:45.259Z,47.47
2023-03-25T05:54:13.543Z,42.72
2023-03-25T05:56:42.840Z,42.55
2023-03-25T05:59:14.427Z,41.60
2023-03-25T06:01:45.711Z,39.92
2023-03-25T06:04:16.838Z,42.67
2023-03-25T06:06:46.473Z,44.03
2023-03-25T06:09:14.630Z,41.85
2023-03-25T06:11:43.287Z,41.80
2023-03-25T06:14:11.730Z,43.50
2023-03-25T06:16:40.109Z,41.78
2023-03-25T06:19:09.701Z,43.10
2023-03-25T06:21:37.784Z,40.03
2023-03-25T06:24:07.056Z,39.50
2023-03-25T06:26:35.170Z,39.45
2023-03-25T06:29:04.350Z,42.10
2023-03-25T06:31:34.089Z,39.28
2023-03-25T06:34:02.712Z,38.75
2023-03-25T06:36:34.895Z,40.92
2023-03-25T06:39:05.442Z,39.92
2023-03-25T06:41:36.088Z,40.13
2023-03-25T06:44:05.422Z,38.90
2023-03-25T06:46:33.541Z,39.17
2023-03-25T06:49:01.713Z,38.85
2023-03-25T06:51:31.474Z,40.35
2023-03-25T06:54:01.541Z,39.88
2023-03-25T06:56:29.928Z,39.53
2023-03-25T06:58:58.209Z,38.55
2023-03-25T07:01:26.631Z,39.22
2023-03-25T07:03:57.554Z,39.88
2023-03-25T07:06:29.309Z,40.08
2023-03-25T07:08:59.292Z,40.55
2023-03-25T07:11:30.352Z,41.33
2023-03-25T07:13:58.814Z,38.72
2023-03-25T07:16:28.269Z,44.00
2023-03-25T07:18:57.432Z,40.47
2023-03-25T07:21:26.812Z,41.47
2023-03-25T07:23:55.909Z,42.25
2023-03-25T07:26:26.127Z,40.17
2023-03-25T07:28:55.033Z,40.53
2023-03-25T07:31:23.609Z,39.47
2023-03-25T07:33:52.566Z,40.17
2023-03-25T07:36:22.165Z,47.63
2023-03-25T07:38:50.858Z,40.80
2023-03-25T07:41:19.304Z,41.45
2023-03-25T07:43:49.409Z,41.97
2023-03-25T07:46:18.091Z,44.55
2023-03-25T07:48:46.824Z,40.28
2023-03-25T07:51:16.485Z,41.63
2023-03-25T07:53:46.783Z,40.88
2023-03-25T07:56:16.472Z,41.15
2023-03-25T07:58:45.780Z,40.90
2023-03-25T08:01:16.004Z,43.92
2023-03-25T08:03:44.403Z,47.22
2023-03-25T08:06:13.646Z,43.33
2023-03-25T08:08:42.674Z,43.13
2023-03-25T08:11:11.769Z,41.03
2023-03-25T08:13:42.678Z,48.05
2023-03-25T08:16:14.018Z,42.80
2023-03-25T08:18:45.452Z,41.30
2023-03-25T08:21:14.430Z,41.92
2023-03-25T08:23:44.695Z,43.05
2023-03-25T08:26:13.182Z,42.92
2023-03-25T08:28:41.853Z,42.75
2023-03-25T08:31:10.272Z,42.22
2023-03-25T08:33:41.156Z,42.95
2023-03-25T08:36:15.892Z,43.63
2023-03-25T08:38:44.560Z,43.13
2023-03-25T08:41:13.203Z,44.05
2023-03-25T08:43:45.132Z,49.50
2023-03-25T08:46:14.154Z,51.17
2023-03-25T08:48:44.011Z,43.35
2023-03-25T08:51:14.075Z,42.47
2023-03-25T08:53:42.539Z,49.58
2023-03-25T08:56:11.864Z,43.75
2023-03-25T08:58:40.367Z,45.17
2023-03-25T09:01:09.317Z,44.17
2023-03-25T09:03:42.406Z,43.08
2023-03-25T09:06:11.463Z,44.08
2023-03-25T09:08:41.448Z,43.63
2023-03-25T09:11:09.691Z,43.00
2023-03-25T09:13:38.195Z,44.75
2023-03-25T09:16:07.539Z,46.05
2023-03-25T09:18:36.816Z,43.08
2023-03-25T09:21:05.337Z,44.10
2023-03-25T09:23:33.845Z,45.45
2023-03-25T09:26:05.478Z,47.83
2023-03-25T09:28:33.793Z,47.92
2023-03-25T09:31:02.177Z,47.90
2023-03-25T09:33:30.620Z,47.25
2023-03-25T09:35:59.478Z,45.90
2023-03-25T09:38:28.008Z,44.75
2023-03-25T09:40:56.683Z,45.35
2023-03-25T09:43:51.789Z,46.28
2023-03-25T09:46:20.262Z,46.33
2023-03-25T09:48:50.494Z,45.90
2023-03-25T09:51:24.533Z,46.20
2023-03-25T09:53:57.312Z,46.00
2023-03-25T09:56:31.382Z,45.40
2023-03-25T09:59:06.437Z,45.88
2023-03-25T10:01:41.527Z,46.38
2023-03-25T10:04:28.946Z,44.28
2023-03-25T10:07:04.211Z,47.45
2023-03-25T10:09:41.220Z,48.08
2023-03-25T10:12:22.000Z,47.33
2023-03-25T10:15:04.462Z,46.72
2023-03-25T10:17:40.906Z,45.47
2023-03-25T10:20:17.632Z,44.70
2023-03-25T10:23:02.177Z,44.63
2023-03-25T10:25:36.185Z,45.40
2023-03-25T10:28:06.640Z,43.70
2023-03-25T10:30:42.642Z,46.08
2023-03-25T10:33:19.974Z,47.45
2023-03-25T10:35:50.220Z,44.90
2023-03-25T10:38:24.345Z,45.55
2023-03-25T10:40:58.384Z,45.53
2023-03-25T10:43:30.285Z,47.35
2023-03-25T10:46:05.881Z,47.28
2023-03-25T10:48:34.967Z,44.83
2023-03-25T10:51:07.010Z,46.00
2023-03-25T10:53:35.761Z,47.15
2023-03-25T10:56:09.116Z,49.47
2023-03-25T10:58:39.865Z,46.55
2023-03-25T11:01:15.185Z,46.78
2023-03-25T11:03:45.311Z,45.92
2023-03-25T11:06:26.674Z,46.80
2023-03-25T11:08:59.357Z,43.83
2023-03-25T11:11:33.989Z,45.40
2023-03-25T11:14:04.432Z,43.83
2023-03-25T11:16:35.560Z,44.08
2023-03-25T11:19:05.553Z,45.65
2023-03-25T11:21:35.227Z,45.55
2023-03-25T11:24:07.231Z,45.92
2023-03-25T11:26:39.651Z,47.08
2023-03-25T11:29:13.850Z,47.17
2023-03-25T11:31:56.569Z,47.47
2023-03-25T11:34:25.396Z,46.28
2023-03-25T11:36:56.092Z,46.15
2023-03-25T11:39:30.735Z,44.20
2023-03-25T11:42:00.234Z,43.70
2023-03-25T11:44:32.150Z,46.67
2023-03-25T11:47:04.493Z,45.58
2023-03-25T11:49:37.220Z,47.00
2023-03-25T11:52:09.262Z,46.83
2023-03-25T11:54:38.883Z,46.28
2023-03-25T11:57:14.102Z,45.20
2023-03-25T11:59:46.298Z,45.05
2023-03-25T12:02:28.188Z,45.28
2023-03-25T12:05:02.668Z,46.58
2023-03-25T12:07:31.595Z,45.90
2023-03-25T12:10:05.904Z,47.83
2023-03-25T12:12:43.730Z,47.97
2023-03-25T12:15:21.303Z,46.17
2023-03-25T12:18:05.511Z,45.95
2023-03-25T12:20:42.212Z,44.60
2023-03-25T12:23:22.223Z,46.40
2023-03-25T12:26:01.167Z,46.05
2023-03-25T12:28:48.905Z,44.03
2023-03-25T12:31:33.961Z,47.92
2023-03-25T12:34:15.667Z,45.10
2023-03-25T12:36:53.634Z,45.80
2023-03-25T12:39:43.455Z,46.38
2023-03-25T12:42:30.605Z,45.65
2023-03-25T12:45:15.579Z,45.65
2023-03-25T12:47:44.986Z,48.28
2023-03-25T12:50:36.674Z,47.92
2023-03-25T12:53:18.070Z,45.47
2023-03-25T12:56:00.768Z,44.90
2023-03-25T12:59:02.544Z,45.45
2023-03-25T13:01:41.839Z,48.13
2023-03-25T13:04:26.495Z,46.75
2023-03-25T13:07:02.971Z,45.28
2023-03-25T13:09:35.576Z,48.38
2023-03-25T13:12:10.721Z,46.28
2023-03-25T13:14:44.434Z,44.60
2023-03-25T13:17:20.504Z,45.38
2023-03-25T13:19:49.461Z,44.88
2023-03-25T13:22:24.880Z,44.03
2023-03-25T13:24:56.154Z,42.30
2023-03-25T13:27:25.376Z,35.60
2023-03-25T13:29:56.829Z,34.75
2023-03-25T13:32:29.773Z,36.63
2023-03-25T13:35:01.971Z,39.38
2023-03-25T13:37:37.435Z,40.05
2023-03-25T13:40:18.036Z,38.30
2023-03-25T13:42:53.222Z,41.40
2023-03-25T13:45:23.198Z,41.25
2023-03-25T13:47:56.207Z,42.33
2023-03-25T13:50:29.125Z,44.40
2023-03-25T13:53:03.770Z,42.50
2023-03-25T13:55:35.985Z,42.97
2023-03-25T13:58:45.389Z,48.22
2023-03-25T14:01:33.870Z,44.40
2023-03-25T14:04:33.206Z,45.60
2023-03-25T14:07:43.248Z,45.13
2023-03-25T14:10:29.385Z,47.25
2023-03-25T14:13:01.840Z,45.35
2023-03-25T14:15:34.009Z,43.55
2023-03-25T14:18:03.232Z,44.25
2023-03-25T14:20:38.111Z,45.95
2023-03-25T14:23:09.825Z,46.83
2023-03-25T14:25:41.887Z,45.92
2023-03-25T14:28:17.059Z,44.95
2023-03-25T14:30:45.769Z,43.70
2023-03-25T14:33:14.659Z,44.47
2023-03-25T14:35:48.804Z,45.13
2023-03-25T14:38:25.611Z,45.90
2023-03-25T14:41:03.411Z,44.83
2023-03-25T14:43:35.544Z,46.67
2023-03-25T14:46:18.691Z,48.50
2023-03-25T14:48:51.650Z,46.00
2023-03-25T14:51:42.795Z,46.45
2023-03-25T14:54:29.787Z,46.50
2023-03-25T14:57:07.219Z,45.75
2023-03-25T14:59:40.181Z,46.10
2023-03-25T15:02:17.432Z,44.47
2023-03-25T15:04:47.299Z,45.05
2023-03-25T15:07:20.592Z,44.28
2023-03-25T15:09:53.978Z,48.45
2023-03-25T15:12:27.499Z,47.15
2023-03-25T15:15:04.382Z,51.95
2023-03-25T15:17:45.615Z,47.15
2023-03-25T15:20:28.991Z,45.28
2023-03-25T15:23:36.266Z,45.33
2023-03-25T15:26:06.238Z,45.33
2023-03-25T15:29:13.952Z,46.50
2023-03-25T15:31:56.212Z,44.72
2023-03-25T15:34:46.777Z,43.58
2023-03-25T15:37:46.930Z,45.67
2023-03-25T15:40:32.232Z,46.50
2023-03-25T15:43:29.894Z,46.17
2023-03-25T15:46:40.022Z,44.33
2023-03-25T15:49:23.550Z,44.97
2023-03-25T15:52:04.532Z,44.55
2023-03-25T15:54:35.100Z,45.55
2023-03-25T15:57:09.298Z,43.75
2023-03-25T15:59:44.090Z,43.40
2023-03-25T16:02:27.621Z,50.42
2023-03-25T16:05:05.878Z,43.60
2023-03-25T16:16:07.077Z,45.17
2023-03-25T16:18:38.881Z,42.35
2023-03-25T16:21:07.456Z,42.08
2023-03-25T16:23:37.738Z,49.90
2023-03-25T16:26:07.057Z,43.15
2023-03-25T16:28:40.095Z,43.30
2023-03-25T16:31:16.016Z,42.70
2023-03-25T16:33:45.803Z,48.35
2023-03-25T16:36:17.789Z,44.20
2023-03-25T16:38:46.181Z,48.22
2023-03-25T16:41:15.709Z,47.55
2023-03-25T16:43:55.096Z,45.05
2023-03-25T16:46:24.444Z,45.25
2023-03-25T16:48:55.561Z,49.67
2023-03-25T16:51:28.926Z,46.60
2023-03-25T16:53:59.736Z,41.70
2023-03-25T16:56:31.333Z,42.60
2023-03-25T16:59:04.051Z,42.20
2023-03-25T17:01:38.839Z,42.80
2023-03-25T17:04:12.649Z,41.67
2023-03-25T17:06:43.536Z,47.72
2023-03-25T17:09:18.341Z,44.78
2023-03-25T17:11:48.613Z,43.22
2023-03-25T17:14:21.221Z,45.72
2023-03-25T17:16:53.215Z,45.38
2023-03-25T17:19:24.863Z,42.42
2023-03-25T17:22:05.411Z,44.40
2023-03-25T17:24:41.830Z,43.85
2023-03-25T17:27:22.473Z,42.70
2023-03-25T17:29:51.696Z,45.22
2023-03-25T17:32:20.199Z,47.55
2023-03-25T17:34:59.747Z,43.83
2023-03-25T17:37:31.275Z,40.45
2023-03-25T17:40:01.504Z,49.20
2023-03-25T17:42:33.034Z,47.13
2023-03-25T17:45:01.171Z,42.80
2023-03-25T17:47:29.280Z,43.95
2023-03-25T17:49:59.267Z,44.35
2023-03-25T17:52:30.074Z,53.75
2023-03-25T17:54:59.587Z,48.53
2023-03-25T17:57:29.765Z,44.85
2023-03-25T17:59:58.008Z,43.42
2023-03-25T18:02:26.363Z,47.33
2023-03-25T18:04:54.689Z,48.35
2023-03-25T18:07:24.240Z,46.38
2023-03-25T18:09:54.577Z,47.45
2023-03-25T18:12:22.881Z,44.70
2023-03-25T18:14:51.340Z,59.85
2023-03-25T18:17:19.586Z,49.35
2023-03-25T18:19:47.652Z,46.03
2023-03-25T18:24:48.813Z,46.55
2023-03-25T18:27:17.361Z,47.25
2023-03-25T18:29:45.645Z,47.17
2023-03-25T18:32:16.462Z,42.50
2023-03-25T18:34:44.901Z,48.10
2023-03-25T18:37:13.363Z,39.35
2023-03-25T18:39:41.860Z,47.83
2023-03-25T18:42:11.633Z,43.90
2023-03-25T18:44:39.798Z,44.67
2023-03-25T18:47:09.972Z,48.85
2023-03-25T18:49:38.362Z,40.95
2023-03-25T18:52:06.768Z,42.10
2023-03-25T18:54:35.036Z,45.22
2023-03-25T18:57:03.347Z,48.88
2023-03-25T18:59:32.953Z,42.72
2023-03-25T19:02:01.133Z,37.15
2023-03-25T19:04:29.546Z,36.78
2023-03-25T19:06:57.845Z,39.67
2023-03-25T19:09:26.140Z,37.42
2023-03-25T19:11:56.524Z,41.78
2023-03-25T19:14:24.831Z,36.10
2023-03-25T19:17:03.767Z,36.05
2023-03-25T19:19:32.977Z,40.00
2023-03-25T19:22:03.438Z,36.65
2023-03-25T19:24:31.614Z,37.30
2023-03-25T19:27:00.417Z,36.70
2023-03-25T19:29:29.343Z,36.15
2023-03-25T19:31:59.017Z,36.60
2023-03-25T19:34:30.610Z,39.88
2023-03-25T19:37:02.945Z,36.63
2023-03-25T19:39:31.270Z,38.08
2023-03-25T19:41:59.279Z,36.75
2023-03-25T19:44:27.528Z,36.83
2023-03-25T19:46:56.042Z,37.22
2023-03-25T19:49:39.096Z,37.25
2023-03-25T19:52:08.813Z,36.78
2023-03-25T19:54:37.393Z,38.17
2023-03-25T19:57:05.818Z,40.30
2023-03-25T19:59:36.564Z,37.67
2023-03-25T20:02:05.107Z,38.67
2023-03-25T20:04:36.684Z,39.85
2023-03-25T20:07:05.289Z,37.17
2023-03-25T20:09:33.671Z,38.13
2023-03-25T20:12:01.992Z,37.10
2023-03-25T20:14:30.069Z,37.88
2023-03-25T20:16:58.207Z,39.45
2023-03-25T20:19:26.985Z,36.13
2023-03-25T20:21:57.416Z,37.33
2023-03-25T20:24:25.951Z,36.75
2023-03-25T20:26:54.204Z,39.22
2023-03-25T20:29:23.239Z,37.35
2023-03-25T20:31:51.477Z,38.90
2023-03-25T20:34:31.457Z,37.10
2023-03-25T20:37:01.878Z,39.60
2023-03-25T20:39:34.256Z,38.20
2023-03-25T20:42:03.409Z,38.80
2023-03-25T20:44:34.229Z,38.22
2023-03-25T20:47:03.214Z,38.15
2023-03-25T20:49:31.964Z,40.03
2023-03-25T20:52:01.615Z,36.58
2023-03-25T20:54:29.977Z,37.30
2023-03-25T20:56:58.890Z,38.15
2023-03-25T20:59:27.942Z,38.60
2023-03-25T21:02:00.030Z,37.80
2023-03-25T21:04:28.564Z,39.05
2023-03-25T21:06:57.382Z,38.50
2023-03-25T21:09:27.075Z,39.67
2023-03-25T21:11:55.349Z,38.47
2023-03-25T21:14:24.080Z,45.35
2023-03-25T21:16:55.700Z,41.17
2023-03-25T21:19:25.007Z,44.55
2023-03-25T21:21:54.553Z,42.40
2023-03-25T21:24:23.084Z,41.72
2023-03-25T21:26:52.625Z,42.63
2023-03-25T21:29:21.707Z,40.05
2023-03-25T21:31:49.817Z,40.65
2023-03-25T21:34:18.352Z,39.53
2023-03-25T21:36:46.489Z,38.50
2023-03-25T21:39:14.717Z,39.38
2023-03-25T21:41:43.280Z,38.60
2023-03-25T21:44:15.866Z,38.25
2023-03-25T21:46:44.175Z,37.88
2023-03-25T21:49:14.093Z,38.13
2023-03-25T21:51:44.404Z,37.80
2023-03-25T21:54:14.454Z,37.85
2023-03-25T21:56:42.837Z,37.70
2023-03-25T21:59:12.484Z,38.30
2023-03-25T22:01:41.942Z,36.95
2023-03-25T22:04:10.910Z,35.90
2023-03-25T22:06:39.355Z,37.15
2023-03-25T22:09:09.200Z,36.75
2023-03-25T22:11:40.056Z,36.78
2023-03-25T22:14:09.840Z,36.50
2023-03-25T22:16:39.791Z,36.55
2023-03-25T22:19:08.357Z,36.67
2023-03-25T22:21:38.069Z,36.28
2023-03-25T22:24:08.397Z,37.00
2023-03-25T22:26:39.351Z,37.35
2023-03-25T22:29:10.049Z,37.67
2023-03-25T22:31:40.653Z,42.55
2023-03-25T22:34:12.014Z,38.38
2023-03-25T22:36:42.769Z,37.78
2023-03-25T22:39:12.382Z,36.88
2023-03-25T22:41:41.248Z,36.97
2023-03-25T22:44:09.506Z,38.20
2023-03-25T22:46:40.370Z,37.47
2023-03-25T22:49:08.736Z,40.03
2023-03-25T22:51:37.271Z,38.58
2023-03-25T22:54:06.068Z,37.55
2023-03-25T22:56:34.801Z,38.83
2023-03-25T22:59:03.535Z,37.75
2023-03-25T23:01:32.004Z,37.88
2023-03-25T23:04:01.650Z,38.25
2023-03-25T23:06:31.703Z,38.00
2023-03-25T23:09:00.461Z,38.95
2023-03-25T23:11:30.986Z,39.50
2023-03-25T23:14:01.443Z,37.85
2023-03-25T23:16:31.947Z,40.13
2023-03-25T23:19:02.315Z,39.08
2023-03-25T23:21:33.481Z,39.25
2023-03-25T23:24:03.954Z,38.25
2023-03-25T23:26:36.747Z,39.35
2023-03-25T23:29:09.171Z,37.88
2023-03-25T23:31:41.182Z,38.83
2023-03-25T23:34:12.889Z,38.40
2023-03-25T23:36:41.509Z,38.38
2023-03-25T23:39:12.560Z,40.10
2023-03-25T23:41:41.118Z,39.38
2023-03-25T23:44:09.484Z,39.85
2023-03-25T23:46:37.728Z,39.15
2023-03-25T23:49:05.909Z,40.25
2023-03-25T23:51:38.014Z,38.75
2023-03-25T23:54:07.309Z,40.28
2023-03-25T23:56:35.825Z,42.13
2023-03-25T23:59:05.530Z,38.03
